Time;durP1;ratioP1;P1;durP2;ratioP2;P2;SDS_P1;SDS_P2;PMS_P1;PMS_P2;Temp;Humidity;BMP_temperature;BMP_pressure;BME280_temperature;BME280_humidity;BME280_pressure;Samples;Min_cycle;Max_cycle;Signal;HPM_P1;HPM_P2
2023/04/25 00:02:03;;;;;;;14.68;4.78;;;6.80;99.90;;;;;;5062495;28;20080;-43
2023/04/25 00:04:29;;;;;;;16.95;4.57;;;6.70;99.90;;;;;;5049662;28;20024;-46
2023/04/25 00:06:55;;;;;;;17.77;4.80;;;6.70;99.90;;;;;;5063627;28;20028;-45
2023/04/25 00:09:21;;;;;;;17.55;5.50;;;6.70;99.90;;;;;;5049528;28;20087;-49
2023/04/25 00:11:47;;;;;;;13.77;4.75;;;6.80;99.90;;;;;;5063908;28;20492;-49
2023/04/25 00:14:13;;;;;;;14.68;5.07;;;6.70;99.90;;;;;;5065425;28;20039;-52
2023/04/25 00:16:40;;;;;;;16.77;5.00;;;6.80;99.90;;;;;;5070161;28;20028;-50
2023/04/25 00:19:07;;;;;;;25.83;4.65;;;6.70;99.90;;;;;;5072225;28;20085;-49
2023/04/25 00:21:33;;;;;;;17.13;5.22;;;6.70;99.90;;;;;;5069286;28;20020;-52
2023/04/25 00:23:59;;;;;;;13.93;4.57;;;6.80;99.90;;;;;;5054283;28;20036;-55
2023/04/25 00:26:25;;;;;;;21.73;4.93;;;6.80;99.90;;;;;;5071173;28;20037;-44
2023/04/25 00:28:51;;;;;;;15.40;4.50;;;6.70;99.90;;;;;;5059962;28;20028;-49
2023/04/25 00:31:16;;;;;;;15.88;4.28;;;6.80;99.90;;;;;;5068064;28;20399;-45
2023/04/25 00:33:42;;;;;;;17.00;4.75;;;6.80;99.90;;;;;;5071688;28;20028;-49
2023/04/25 00:36:08;;;;;;;13.90;4.32;;;6.70;99.90;;;;;;5069210;28;20020;-46
2023/04/25 00:38:34;;;;;;;18.58;4.40;;;6.70;99.90;;;;;;5069500;28;20017;-45
2023/04/25 00:41:00;;;;;;;18.50;4.68;;;6.70;99.90;;;;;;5069767;28;20078;-45
2023/04/25 00:43:27;;;;;;;23.33;4.53;;;6.70;99.90;;;;;;5067535;28;20678;-47
2023/04/25 00:45:53;;;;;;;18.33;4.45;;;6.70;99.90;;;;;;5071522;28;20103;-42
2023/04/25 00:48:22;;;;;;;17.42;4.93;;;6.70;99.90;;;;;;5065213;28;20477;-45
2023/04/25 00:50:53;;;;;;;19.33;4.60;;;6.70;99.90;;;;;;5071568;28;20484;-55
2023/04/25 00:53:20;;;;;;;20.48;3.97;;;6.70;99.90;;;;;;5058227;28;20082;-48
2023/04/25 00:55:46;;;;;;;19.25;3.90;;;6.60;99.90;;;;;;5071354;28;20040;-50
2023/04/25 00:58:12;;;;;;;13.20;3.80;;;6.60;99.90;;;;;;5071448;28;20021;-50
2023/04/25 01:00:38;;;;;;;15.32;4.75;;;6.70;99.90;;;;;;5071348;28;20028;-47
2023/04/25 01:03:04;;;;;;;14.93;4.20;;;6.70;99.90;;;;;;5071099;28;20020;-49
2023/04/25 01:05:29;;;;;;;19.05;4.22;;;6.60;99.90;;;;;;5071233;28;20030;-45
2023/04/25 01:07:55;;;;;;;12.60;3.70;;;6.70;99.90;;;;;;5071095;28;20046;-49
2023/04/25 01:10:21;;;;;;;20.25;4.05;;;6.60;99.90;;;;;;5071074;28;20074;-49
2023/04/25 01:12:47;;;;;;;27.35;4.82;;;6.60;99.90;;;;;;5070835;28;20125;-48
2023/04/25 01:15:13;;;;;;;15.73;4.10;;;6.60;99.90;;;;;;5071018;28;20027;-52
2023/04/25 01:17:41;;;;;;;20.00;4.32;;;6.60;99.90;;;;;;5071074;28;20024;-46
2023/04/25 01:20:09;;;;;;;18.25;4.53;;;6.60;99.90;;;;;;5071020;28;20017;-42
2023/04/25 01:22:35;;;;;;;16.35;4.30;;;6.60;99.90;;;;;;5068973;28;20032;-49
2023/04/25 01:25:01;;;;;;;14.15;3.92;;;6.50;99.90;;;;;;5070782;28;20020;-52
2023/04/25 01:27:27;;;;;;;15.57;4.03;;;6.50;99.90;;;;;;5070240;28;20033;-47
2023/04/25 01:29:55;;;;;;;22.27;3.97;;;6.50;99.90;;;;;;5052510;28;20460;-44
2023/04/25 01:32:22;;;;;;;22.15;4.03;;;6.40;99.90;;;;;;5071019;28;20038;-48
2023/04/25 01:34:48;;;;;;;29.67;5.72;;;6.50;99.90;;;;;;5070639;28;20467;-44
2023/04/25 01:37:14;;;;;;;19.90;4.15;;;6.40;99.90;;;;;;5070852;28;20100;-45
2023/04/25 01:39:40;;;;;;;18.02;5.40;;;6.40;99.90;;;;;;5071082;28;20536;-48
2023/04/25 01:42:06;;;;;;;14.23;4.05;;;6.30;99.90;;;;;;5070651;28;20050;-53
2023/04/25 01:44:32;;;;;;;17.30;4.55;;;6.20;99.90;;;;;;5070979;28;20036;-52
2023/04/25 01:46:57;;;;;;;16.67;4.63;;;6.20;99.90;;;;;;5052427;28;20031;-48
2023/04/25 01:49:23;;;;;;;20.15;4.63;;;6.10;99.90;;;;;;5070605;28;20052;-44
2023/04/25 01:51:49;;;;;;;22.80;4.70;;;6.00;99.90;;;;;;5063825;28;20078;-57
2023/04/25 01:54:15;;;;;;;19.45;4.50;;;5.90;99.90;;;;;;5070437;28;20467;-47
2023/04/25 01:56:40;;;;;;;17.17;4.28;;;5.80;99.90;;;;;;5070625;28;20427;-57
2023/04/25 01:59:06;;;;;;;18.10;4.80;;;5.70;99.90;;;;;;5070404;28;20372;-54
2023/04/25 02:01:32;;;;;;;21.50;4.85;;;5.60;99.90;;;;;;5070643;28;20048;-46
2023/04/25 02:03:58;;;;;;;13.85;4.05;;;5.50;99.90;;;;;;5070536;28;20028;-52
2023/04/25 02:06:23;;;;;;;12.48;4.90;;;5.40;99.90;;;;;;5070261;28;20024;-44
2023/04/25 02:08:50;;;;;;;16.98;4.22;;;5.30;99.90;;;;;;5070422;28;20021;-56
2023/04/25 02:11:15;;;;;;;16.50;4.07;;;5.30;99.90;;;;;;5070061;28;20471;-44
2023/04/25 02:13:41;;;;;;;24.02;5.05;;;5.20;99.90;;;;;;5070361;28;20020;-47
2023/04/25 02:16:07;;;;;;;15.50;4.55;;;5.10;99.90;;;;;;5070385;28;20032;-46
2023/04/25 02:18:33;;;;;;;18.13;4.25;;;5.00;99.90;;;;;;5070254;28;20016;-43
2023/04/25 02:20:59;;;;;;;18.77;4.57;;;5.00;99.90;;;;;;5070293;28;20048;-50
2023/04/25 02:23:25;;;;;;;23.10;4.03;;;4.90;99.90;;;;;;5056948;28;20033;-46
2023/04/25 02:25:51;;;;;;;18.65;3.58;;;5.00;99.90;;;;;;5051174;28;20026;-51
2023/04/25 02:28:17;;;;;;;15.02;3.92;;;4.90;99.90;;;;;;5049658;28;20032;-44
2023/04/25 02:30:43;;;;;;;18.95;4.68;;;4.90;99.90;;;;;;5070192;28;20673;-48
2023/04/25 02:33:08;;;;;;;17.98;3.70;;;4.80;99.90;;;;;;5070081;28;20021;-48
2023/04/25 02:35:34;;;;;;;23.70;3.88;;;4.70;99.90;;;;;;5070108;28;20123;-53
2023/04/25 02:38:00;;;;;;;17.83;4.30;;;4.60;99.90;;;;;;5071511;28;20027;-47
2023/04/25 02:40:26;;;;;;;23.08;4.82;;;4.70;99.90;;;;;;5073872;28;20463;-43
2023/04/25 02:42:51;;;;;;;18.27;3.53;;;4.60;99.90;;;;;;5073721;28;20020;-48
2023/04/25 02:45:17;;;;;;;19.70;3.88;;;4.60;99.90;;;;;;5073855;28;20024;-46
2023/04/25 02:47:42;;;;;;;11.85;3.28;;;4.50;99.90;;;;;;5074036;28;20495;-43
2023/04/25 02:50:08;;;;;;;15.65;3.47;;;4.50;99.90;;;;;;5073859;28;20072;-43
2023/04/25 02:52:34;;;;;;;13.07;3.63;;;4.40;99.90;;;;;;5071140;28;20024;-43
2023/04/25 02:55:00;;;;;;;16.98;4.18;;;4.40;99.90;;;;;;5073757;28;20033;-43
2023/04/25 02:57:25;;;;;;;15.93;3.42;;;4.30;99.90;;;;;;5055827;28;20526;-52
2023/04/25 02:59:51;;;;;;;14.38;3.72;;;4.30;99.90;;;;;;5055713;28;20036;-50
2023/04/25 03:02:16;;;;;;;15.27;2.97;;;4.20;99.90;;;;;;5073594;28;20104;-53
2023/04/25 03:04:42;;;;;;;18.88;3.80;;;4.20;99.90;;;;;;5073693;28;20025;-55
2023/04/25 03:07:08;;;;;;;17.95;5.40;;;4.20;99.90;;;;;;5055492;28;20048;-44
2023/04/25 03:09:33;;;;;;;17.23;4.32;;;4.20;99.90;;;;;;5073438;28;20013;-45
2023/04/25 03:12:00;;;;;;;17.83;3.80;;;4.10;99.90;;;;;;5073169;28;20052;-45
2023/04/25 03:14:25;;;;;;;16.45;4.00;;;4.00;99.90;;;;;;5073385;28;20433;-47
2023/04/25 03:16:51;;;;;;;16.13;3.47;;;4.00;99.90;;;;;;5073332;28;20491;-55
2023/04/25 03:19:16;;;;;;;19.08;4.45;;;3.90;99.90;;;;;;5073329;28;20103;-44
2023/04/25 03:21:42;;;;;;;18.40;3.95;;;3.90;99.90;;;;;;5066838;28;20036;-49
2023/04/25 03:24:08;;;;;;;13.65;3.33;;;4.00;99.90;;;;;;5060177;28;20024;-48
2023/04/25 03:26:33;;;;;;;18.63;3.47;;;3.90;99.90;;;;;;5073209;28;20413;-45
2023/04/25 03:28:59;;;;;;;17.27;3.35;;;3.90;99.90;;;;;;5059038;28;20468;-47
2023/04/25 03:31:25;;;;;;;15.38;3.55;;;3.80;99.90;;;;;;5054993;28;20098;-49
2023/04/25 03:33:50;;;;;;;16.83;3.65;;;3.80;99.90;;;;;;5073115;28;20024;-47
2023/04/25 03:36:16;;;;;;;19.10;3.92;;;3.80;99.90;;;;;;5073150;28;20071;-49
2023/04/25 03:38:41;;;;;;;13.93;2.90;;;3.70;99.90;;;;;;5072970;28;20016;-43
2023/04/25 03:41:07;;;;;;;15.73;3.50;;;3.70;99.90;;;;;;5072961;28;20040;-52
2023/04/25 03:43:33;;;;;;;17.00;2.92;;;3.60;99.90;;;;;;5072830;28;20008;-43
2023/04/25 03:45:59;;;;;;;11.55;3.05;;;3.50;99.90;;;;;;5072689;28;20029;-50
2023/04/25 03:48:26;;;;;;;9.02;2.95;;;3.50;99.90;;;;;;5072674;28;20376;-48
2023/04/25 03:50:52;;;;;;;13.05;3.25;;;3.50;99.90;;;;;;5071771;28;20037;-43
2023/04/25 03:53:17;;;;;;;13.75;3.20;;;3.50;99.90;;;;;;5058259;28;20479;-49
2023/04/25 03:55:43;;;;;;;12.90;3.92;;;3.40;99.90;;;;;;5072574;28;20035;-42
2023/04/25 03:58:09;;;;;;;15.70;4.13;;;3.40;99.90;;;;;;5072398;28;20087;-50
2023/04/25 04:00:35;;;;;;;16.65;3.35;;;3.40;99.90;;;;;;5072652;28;20108;-52
2023/04/25 04:03:01;;;;;;;12.88;3.05;;;3.40;99.90;;;;;;5072087;28;20056;-52
2023/04/25 04:05:28;;;;;;;15.10;3.00;;;3.30;99.90;;;;;;5072587;28;20086;-53
2023/04/25 04:07:55;;;;;;;14.93;3.25;;;3.30;99.90;;;;;;5072417;28;20020;-44
2023/04/25 04:10:21;;;;;;;17.52;3.13;;;3.40;99.90;;;;;;5072140;28;20040;-46
2023/04/25 04:12:47;;;;;;;15.40;3.10;;;3.30;99.90;;;;;;5060795;28;20114;-49
2023/04/25 04:15:13;;;;;;;13.73;3.20;;;3.40;99.90;;;;;;5063670;28;20483;-44
2023/04/25 04:17:39;;;;;;;15.30;3.47;;;3.20;99.90;;;;;;5039474;28;20418;-44
2023/04/25 04:20:05;;;;;;;17.90;3.83;;;3.20;99.90;;;;;;5051918;28;20128;-42
2023/04/25 04:22:31;;;;;;;15.50;4.20;;;3.20;99.90;;;;;;5051552;28;20025;-43
2023/04/25 04:24:57;;;;;;;15.65;4.07;;;3.10;99.90;;;;;;5051842;28;20021;-42
2023/04/25 04:27:23;;;;;;;20.50;3.20;;;3.10;99.90;;;;;;5051927;28;20457;-46
2023/04/25 04:29:50;;;;;;;13.57;2.97;;;3.10;99.90;;;;;;5051831;28;20025;-46
2023/04/25 04:32:17;;;;;;;13.73;3.03;;;3.10;99.90;;;;;;5065631;28;20506;-42
2023/04/25 04:34:42;;;;;;;11.38;3.03;;;3.00;99.90;;;;;;5072067;28;20024;-46
2023/04/25 04:37:09;;;;;;;21.50;3.97;;;3.00;99.90;;;;;;5071923;28;20032;-50
2023/04/25 04:39:35;;;;;;;14.23;3.40;;;2.90;99.90;;;;;;5071664;28;20070;-41
2023/04/25 04:42:04;;;;;;;17.92;3.22;;;3.00;99.90;;;;;;5071792;28;20116;-41
2023/04/25 04:44:32;;;;;;;8.77;2.97;;;2.90;99.90;;;;;;5071490;28;20020;-42
2023/04/25 04:46:58;;;;;;;12.77;2.65;;;2.90;99.90;;;;;;5064006;28;20043;-42
2023/04/25 04:49:24;;;;;;;10.70;2.85;;;2.90;99.90;;;;;;5051060;28;20027;-42
2023/04/25 04:51:49;;;;;;;17.20;2.97;;;2.90;99.90;;;;;;5050373;28;20037;-42
2023/04/25 04:54:15;;;;;;;10.43;2.75;;;2.90;99.90;;;;;;5051185;28;20062;-45
2023/04/25 04:56:41;;;;;;;13.25;2.80;;;2.90;99.90;;;;;;5050943;28;20032;-45
2023/04/25 04:59:07;;;;;;;10.15;2.63;;;2.90;99.90;;;;;;5051222;28;20456;-48
2023/04/25 05:01:35;;;;;;;12.95;3.38;;;2.90;99.90;;;;;;5051290;28;20021;-45
2023/04/25 05:04:02;;;;;;;10.60;2.92;;;2.80;99.90;;;;;;5051144;28;20043;-48
2023/04/25 05:06:31;;;;;;;14.30;3.25;;;2.80;99.90;;;;;;5051063;28;20021;-42
2023/04/25 05:08:57;;;;;;;11.82;3.10;;;2.80;99.90;;;;;;5051123;28;20025;-47
2023/04/25 05:11:24;;;;;;;9.65;2.65;;;2.90;99.90;;;;;;5050740;28;20076;-50
2023/04/25 05:13:51;;;;;;;11.00;3.40;;;2.90;99.90;;;;;;5050912;28;20078;-46
2023/04/25 05:16:17;;;;;;;12.70;3.30;;;3.00;99.90;;;;;;5050836;28;20508;-49
2023/04/25 05:18:43;;;;;;;16.92;3.63;;;3.00;99.90;;;;;;5050956;28;20060;-51
2023/04/25 05:21:08;;;;;;;11.75;2.67;;;3.10;99.90;;;;;;5051438;28;20051;-48
2023/04/25 05:23:34;;;;;;;13.18;3.88;;;3.10;99.90;;;;;;5050245;28;20017;-44
2023/04/25 05:26:01;;;;;;;12.80;3.10;;;3.10;99.90;;;;;;5050953;28;20077;-49
2023/04/25 05:28:26;;;;;;;11.18;3.65;;;3.20;99.90;;;;;;5050572;28;20025;-51
2023/04/25 05:30:52;;;;;;;8.55;2.33;;;3.30;99.90;;;;;;5052934;28;20368;-49
2023/04/25 05:33:18;;;;;;;12.13;3.47;;;3.40;99.90;;;;;;5060038;28;20056;-49
2023/04/25 05:35:44;;;;;;;10.68;3.05;;;3.40;99.90;;;;;;5070761;28;20437;-46
2023/04/25 05:38:10;;;;;;;13.50;3.10;;;3.50;99.90;;;;;;5070839;28;20017;-55
2023/04/25 05:40:36;;;;;;;11.02;3.08;;;3.50;99.90;;;;;;5070613;28;20035;-54
2023/04/25 05:43:01;;;;;;;10.80;3.13;;;3.60;99.90;;;;;;5052582;28;20029;-52
2023/04/25 05:45:27;;;;;;;11.27;3.00;;;3.60;99.90;;;;;;5070524;28;20020;-50
2023/04/25 05:47:52;;;;;;;11.45;2.70;;;3.70;99.90;;;;;;5070375;28;20032;-42
2023/04/25 05:50:18;;;;;;;10.25;3.28;;;3.80;99.90;;;;;;5070597;28;20033;-49
2023/04/25 05:52:44;;;;;;;10.95;3.47;;;3.90;99.90;;;;;;5057008;28;20083;-46
2023/04/25 05:55:09;;;;;;;10.60;3.08;;;3.90;99.90;;;;;;5070586;28;20109;-50
2023/04/25 05:57:35;;;;;;;14.77;3.95;;;4.00;99.90;;;;;;5052448;28;20483;-53
2023/04/25 06:00:01;;;;;;;12.55;2.75;;;4.10;99.90;;;;;;5070367;28;20046;-49
2023/04/25 06:02:27;;;;;;;12.60;3.00;;;4.10;99.90;;;;;;5052542;28;20036;-48
2023/04/25 06:04:52;;;;;;;12.88;3.42;;;4.20;99.90;;;;;;5070137;28;20032;-50
2023/04/25 06:07:18;;;;;;;10.75;3.03;;;4.30;99.90;;;;;;5052296;28;20024;-46
2023/04/25 06:09:44;;;;;;;10.98;2.72;;;4.40;99.90;;;;;;5069991;28;20413;-46
2023/04/25 06:12:10;;;;;;;10.70;2.72;;;4.50;99.90;;;;;;5070208;28;20040;-45
2023/04/25 06:14:36;;;;;;;10.13;3.05;;;4.60;99.90;;;;;;5074410;28;20035;-44
2023/04/25 06:17:06;;;;;;;11.43;2.35;;;4.70;99.90;;;;;;5074375;28;20028;-43
2023/04/25 06:19:37;;;;;;;;;;;5.00;99.90;;;;;;5074999;28;20108;-45
2023/04/25 06:22:03;;;;;;;10.68;2.58;;;5.70;99.90;;;;;;5052414;28;20003;-47
2023/04/25 06:24:29;;;;;;;10.45;2.75;;;6.80;99.90;;;;;;5074346;28;20040;-51
2023/04/25 06:26:54;;;;;;;10.27;1.95;;;8.10;99.90;;;;;;5074201;28;20086;-48
2023/04/25 06:29:21;;;;;;;12.15;2.10;;;9.20;99.90;;;;;;5074264;28;20009;-48
2023/04/25 06:31:46;;;;;;;9.50;2.00;;;10.40;99.90;;;;;;5073996;28;20033;-53
2023/04/25 06:34:12;;;;;;;12.93;2.28;;;11.50;99.90;;;;;;5073930;28;20020;-44
2023/04/25 06:36:38;;;;;;;8.73;2.40;;;12.20;99.90;;;;;;5074119;28;20040;-45
2023/04/25 06:39:03;;;;;;;11.45;2.40;;;13.40;98.00;;;;;;5074001;28;20024;-48
2023/04/25 06:41:29;;;;;;;13.70;2.67;;;13.60;92.80;;;;;;5074112;28;20063;-48
2023/04/25 06:43:54;;;;;;;9.30;2.05;;;14.20;90.10;;;;;;5073791;28;20076;-47
2023/04/25 06:46:20;;;;;;;9.25;2.08;;;13.90;90.90;;;;;;5064044;28;20020;-51
2023/04/25 06:48:46;;;;;;;9.75;1.90;;;14.10;86.60;;;;;;5035754;28;20025;-49
2023/04/25 06:51:13;;;;;;;8.88;2.35;;;14.40;86.10;;;;;;5053613;28;20033;-47
2023/04/25 06:53:38;;;;;;;10.65;2.30;;;15.80;84.40;;;;;;5035597;28;20029;-49
2023/04/25 06:56:04;;;;;;;12.43;2.42;;;15.90;78.10;;;;;;5052911;28;20021;-46
2023/04/25 06:58:30;;;;;;;8.15;1.90;;;15.80;76.60;;;;;;5053400;28;20120;-48
2023/04/25 07:00:55;;;;;;;7.75;1.85;;;16.50;80.40;;;;;;5053364;28;20031;-45
2023/04/25 07:03:21;;;;;;;8.15;2.38;;;17.40;73.00;;;;;;5052970;28;20116;-46
2023/04/25 07:05:46;;;;;;;10.90;2.65;;;17.50;70.80;;;;;;5053385;28;20025;-52
2023/04/25 07:08:12;;;;;;;10.15;2.10;;;17.20;69.00;;;;;;5053010;28;20468;-45
2023/04/25 07:10:38;;;;;;;7.63;2.25;;;17.40;70.20;;;;;;5053471;28;20487;-43
2023/04/25 07:13:03;;;;;;;7.25;2.00;;;17.50;67.80;;;;;;5053167;28;20048;-46
2023/04/25 07:15:29;;;;;;;11.27;2.72;;;18.00;64.80;;;;;;5053268;28;20079;-50
2023/04/25 07:17:55;;;;;;;8.40;2.13;;;17.40;64.70;;;;;;5053140;28;20484;-43
2023/04/25 07:20:20;;;;;;;11.23;2.60;;;17.90;65.70;;;;;;5052869;28;20108;-49
2023/04/25 07:22:46;;;;;;;10.80;2.05;;;19.00;66.30;;;;;;5053115;28;20499;-50
2023/04/25 07:25:12;;;;;;;10.85;2.00;;;18.60;61.40;;;;;;5051641;28;20104;-46
2023/04/25 07:27:37;;;;;;;11.23;2.20;;;18.30;65.50;;;;;;5034884;28;20172;-42
2023/04/25 07:30:04;;;;;;;7.63;2.20;;;17.60;61.80;;;;;;5052935;28;20044;-45
2023/04/25 07:32:30;;;;;;;11.75;2.55;;;17.30;64.60;;;;;;5059601;28;20017;-50
2023/04/25 07:34:55;;;;;;;8.40;2.60;;;17.80;68.90;;;;;;5047366;28;20025;-47
2023/04/25 07:37:21;;;;;;;9.35;2.42;;;18.20;63.20;;;;;;5039930;28;20021;-47
2023/04/25 07:39:47;;;;;;;8.27;2.42;;;19.10;61.90;;;;;;5052576;28;20044;-50
2023/04/25 07:42:13;;;;;;;12.23;2.20;;;18.70;60.80;;;;;;5052595;28;20021;-42
2023/04/25 07:44:39;;;;;;;8.45;2.15;;;19.50;64.50;;;;;;5052838;28;20040;-43
2023/04/25 07:47:10;;;;;;;7.95;2.03;;;20.00;62.60;;;;;;5052540;28;20068;-49
2023/04/25 07:49:36;;;;;;;7.93;2.15;;;19.90;59.80;;;;;;5052565;28;20103;-43
2023/04/25 07:52:03;;;;;;;6.50;2.20;;;19.80;61.30;;;;;;5051899;28;20032;-46
2023/04/25 07:54:28;;;;;;;8.77;2.35;;;20.30;61.60;;;;;;5052394;28;20035;-42
2023/04/25 07:56:54;;;;;;;6.78;1.80;;;20.80;59.60;;;;;;5047827;28;20124;-45
2023/04/25 07:59:20;;;;;;;8.25;2.08;;;21.50;56.80;;;;;;5052437;28;20017;-43
2023/04/25 08:01:46;;;;;;;10.30;2.08;;;21.60;54.40;;;;;;5051884;28;20069;-43
2023/04/25 08:04:11;;;;;;;8.52;1.90;;;22.20;54.30;;;;;;5051425;28;20433;-43
2023/04/25 08:06:37;;;;;;;8.70;1.88;;;22.10;54.70;;;;;;5052258;28;20501;-58
2023/04/25 08:09:03;;;;;;;6.93;1.90;;;22.40;54.40;;;;;;5043327;28;20029;-46
2023/04/25 08:11:29;;;;;;;9.60;1.90;;;23.00;52.90;;;;;;5039985;28;20025;-53
2023/04/25 08:13:55;;;;;;;7.40;1.95;;;22.90;55.90;;;;;;5051619;28;20048;-44
2023/04/25 08:16:21;;;;;;;8.68;2.42;;;22.80;50.60;;;;;;5051719;28;20071;-43
2023/04/25 08:18:46;;;;;;;6.15;1.60;;;20.90;50.50;;;;;;5051697;28;20383;-44
2023/04/25 08:21:12;;;;;;;6.90;1.60;;;21.10;53.10;;;;;;5051845;28;20029;-47
2023/04/25 08:23:38;;;;;;;8.05;1.80;;;22.10;57.10;;;;;;5051948;28;20023;-48
2023/04/25 08:26:04;;;;;;;9.93;2.10;;;23.20;53.80;;;;;;5051905;28;20411;-50
2023/04/25 08:28:31;;;;;;;7.93;2.20;;;22.70;49.70;;;;;;5051248;28;20053;-52
2023/04/25 08:30:56;;;;;;;9.95;2.00;;;23.60;51.10;;;;;;5054878;28;20110;-44
2023/04/25 08:33:22;;;;;;;6.68;1.77;;;23.80;46.90;;;;;;5061162;28;20032;-44
2023/04/25 08:35:48;;;;;;;8.70;2.10;;;24.10;48.60;;;;;;5055235;28;20032;-48
2023/04/25 08:38:14;;;;;;;6.47;1.70;;;22.80;45.70;;;;;;5051729;28;20467;-54
2023/04/25 08:40:41;;;;;;;7.70;1.63;;;22.80;49.30;;;;;;5051511;28;20025;-47
2023/04/25 08:43:11;;;;;;;10.15;2.30;;;22.90;47.70;;;;;;5051775;28;20013;-50
2023/04/25 08:45:42;;;;;;;8.60;1.92;;;22.60;48.30;;;;;;5051650;28;20083;-52
2023/04/25 08:48:12;;;;;;;6.82;2.00;;;22.70;51.50;;;;;;5047398;28;20021;-51
2023/04/25 08:50:55;;;;;;;8.30;1.85;;;23.10;48.10;;;;;;5042325;28;20073;-43
2023/04/25 08:53:30;;;;;;;7.93;1.95;;;22.80;47.60;;;;;;5051401;28;20053;-46
2023/04/25 08:55:57;;;;;;;6.43;1.77;;;23.60;48.70;;;;;;5050193;28;20484;-43
2023/04/25 08:58:23;;;;;;;6.50;1.70;;;24.30;44.70;;;;;;5051103;28;20025;-54
2023/04/25 09:00:50;;;;;;;6.25;1.70;;;23.50;44.00;;;;;;5051338;28;20406;-48
2023/04/25 09:03:17;;;;;;;8.57;2.03;;;22.30;43.60;;;;;;5051295;28;20027;-42
2023/04/25 09:05:42;;;;;;;7.07;1.95;;;23.10;49.50;;;;;;5051356;28;20024;-44
2023/04/25 09:08:08;;;;;;;9.15;1.92;;;23.00;48.80;;;;;;5051151;28;20147;-45
2023/04/25 09:10:34;;;;;;;8.18;1.55;;;23.70;47.70;;;;;;5049896;28;20028;-53
2023/04/25 09:13:14;;;;;;;6.85;1.65;;;23.70;45.50;;;;;;5049068;28;20706;-46
2023/04/25 09:15:51;;;;;;;10.43;1.65;;;23.90;46.40;;;;;;5050736;28;20064;-47
2023/04/25 09:18:28;;;;;;;9.82;1.70;;;24.70;43.70;;;;;;5049761;28;20033;-48
2023/04/25 09:20:55;;;;;;;7.70;2.00;;;25.50;46.70;;;;;;5050399;28;20108;-50
2023/04/25 09:23:23;;;;;;;6.25;1.60;;;23.80;40.30;;;;;;5050662;28;20071;-44
2023/04/25 09:25:51;;;;;;;10.48;2.20;;;23.20;45.30;;;;;;5050821;28;20033;-43
2023/04/25 09:28:22;;;;;;;7.45;1.80;;;23.80;43.40;;;;;;5051037;28;20047;-47
2023/04/25 09:30:48;;;;;;;4.78;1.40;;;23.50;42.50;;;;;;5052566;28;20036;-51
2023/04/25 09:33:14;;;;;;;4.75;1.48;;;23.40;45.60;;;;;;5070803;28;20364;-43
2023/04/25 09:35:42;;;;;;;7.93;1.67;;;22.60;41.80;;;;;;5070943;28;20040;-42
2023/04/25 09:38:12;;;;;;;5.60;1.67;;;22.50;45.30;;;;;;5056774;28;20468;-54
2023/04/25 09:40:43;;;;;;;6.38;1.45;;;22.10;43.00;;;;;;5048509;28;20405;-49
2023/04/25 09:43:10;;;;;;;7.35;1.38;;;21.60;42.40;;;;;;5045863;28;20028;-45
2023/04/25 09:45:45;;;;;;;7.80;1.83;;;20.40;46.20;;;;;;5043910;28;20108;-44
2023/04/25 09:48:12;;;;;;;6.15;1.52;;;20.20;48.30;;;;;;5046992;28;20052;-53
2023/04/25 09:50:39;;;;;;;7.45;1.75;;;21.40;49.30;;;;;;5050233;28;20036;-43
2023/04/25 09:53:05;;;;;;;5.47;1.80;;;21.90;46.90;;;;;;5050405;28;20016;-57
2023/04/25 09:55:33;;;;;;;5.93;1.50;;;21.20;48.10;;;;;;5050502;28;20532;-43
2023/04/25 09:58:05;;;;;;;13.27;1.60;;;22.50;48.50;;;;;;5050252;28;20028;-46
2023/04/25 10:00:31;;;;;;;6.50;1.50;;;23.20;45.10;;;;;;5050475;28;20044;-45
2023/04/25 10:03:00;;;;;;;6.45;1.58;;;24.30;42.90;;;;;;5046983;28;20470;-47
2023/04/25 10:05:28;;;;;;;7.25;1.63;;;23.80;41.40;;;;;;5049622;28;20399;-49
2023/04/25 10:07:54;;;;;;;7.97;1.50;;;22.60;43.20;;;;;;5045112;28;20052;-46
2023/04/25 10:10:25;;;;;;;8.10;2.05;;;23.30;47.20;;;;;;5049445;28;20124;-50
2023/04/25 10:12:51;;;;;;;7.68;1.80;;;24.80;44.10;;;;;;5038092;28;20041;-49
2023/04/25 10:15:18;;;;;;;5.40;1.55;;;25.40;41.50;;;;;;5035618;28;20021;-53
2023/04/25 10:17:44;;;;;;;8.80;1.50;;;24.80;42.70;;;;;;5048113;28;20108;-53
2023/04/25 10:20:10;;;;;;;6.03;1.60;;;23.60;39.50;;;;;;5030200;28;20413;-51
2023/04/25 10:22:44;;;;;;;3.92;1.33;;;23.00;41.40;;;;;;5049785;28;20096;-49
2023/04/25 10:25:11;;;;;;;5.90;1.23;;;23.00;44.00;;;;;;5049351;28;20028;-47
2023/04/25 10:27:37;;;;;;;4.40;1.35;;;22.80;39.20;;;;;;5050075;28;20472;-52
2023/04/25 10:30:14;;;;;;;7.25;1.33;;;23.00;41.20;;;;;;5049946;28;20036;-51
2023/04/25 10:32:42;;;;;;;5.32;1.30;;;24.30;41.10;;;;;;5049596;28;20383;-54
2023/04/25 10:35:12;;;;;;;6.05;1.30;;;23.20;36.80;;;;;;5070278;28;20506;-49
2023/04/25 10:37:38;;;;;;;4.60;1.58;;;21.70;39.00;;;;;;5070125;28;20094;-55
2023/04/25 10:40:11;;;;;;;5.32;1.38;;;19.70;42.60;;;;;;5070346;28;20028;-50
2023/04/25 10:42:36;;;;;;;7.45;1.38;;;19.80;50.00;;;;;;5069919;28;20020;-53
2023/04/25 10:45:05;;;;;;;5.00;1.20;;;20.90;43.70;;;;;;5061325;28;20103;-49
2023/04/25 10:47:44;;;;;;;3.33;1.00;;;22.90;43.30;;;;;;5041940;28;20025;-49
2023/04/25 10:50:12;;;;;;;3.70;1.38;;;24.20;43.20;;;;;;5049180;28;20045;-51
2023/04/25 10:52:40;;;;;;;5.30;1.40;;;23.90;37.20;;;;;;5049696;28;20021;-56
2023/04/25 10:55:06;;;;;;;4.25;1.25;;;21.80;38.70;;;;;;5049612;28;20017;-48
2023/04/25 10:57:41;;;;;;;5.45;1.15;;;20.80;43.30;;;;;;5049781;28;20047;-49
2023/04/25 11:00:11;;;;;;;4.07;1.40;;;21.40;44.50;;;;;;5052315;28;20427;-47
2023/04/25 11:02:46;;;;;;;5.53;1.70;;;22.80;43.90;;;;;;5053501;28;20021;-47
2023/04/25 11:05:43;;;;;;;4.03;1.30;;;23.30;38.90;;;;;;5025823;28;20021;-49
2023/04/25 11:08:13;;;;;;;6.75;1.60;;;23.80;37.80;;;;;;5037270;28;20388;-47
2023/04/25 11:10:40;;;;;;;4.93;1.48;;;24.50;40.30;;;;;;5053419;28;20039;-53
2023/04/25 11:13:05;;;;;;;4.68;1.35;;;23.90;36.10;;;;;;5053317;28;20037;-49
2023/04/25 11:15:31;;;;;;;4.97;1.23;;;24.30;39.80;;;;;;5053250;28;20505;-47
2023/04/25 11:17:57;;;;;;;5.55;1.80;;;24.60;36.90;;;;;;5052715;28;20036;-51
2023/04/25 11:20:25;;;;;;;4.03;1.42;;;24.30;36.40;;;;;;5053092;28;20078;-47
2023/04/25 11:22:51;;;;;;;4.93;1.42;;;25.10;36.90;;;;;;5053217;28;20452;-50
2023/04/25 11:25:17;;;;;;;8.80;1.50;;;25.40;37.50;;;;;;5053026;28;20043;-51
2023/04/25 11:27:57;;;;;;;8.85;2.13;;;25.80;37.20;;;;;;5053191;28;20040;-51
2023/04/25 11:30:24;;;;;;;4.20;1.38;;;23.90;38.10;;;;;;5052975;28;20039;-50
2023/04/25 11:32:50;;;;;;;4.50;1.40;;;22.10;40.20;;;;;;5071463;28;20028;-48
2023/04/25 11:35:16;;;;;;;7.38;1.60;;;23.20;44.20;;;;;;5073056;28;20099;-48
2023/04/25 11:37:45;;;;;;;6.03;1.70;;;24.20;40.30;;;;;;5072863;28;20386;-48
2023/04/25 11:40:11;;;;;;;5.72;1.52;;;25.00;40.00;;;;;;5073103;28;20020;-49
2023/04/25 11:42:44;;;;;;;3.03;1.33;;;25.10;38.20;;;;;;5072906;28;20031;-52
2023/04/25 11:45:10;;;;;;;6.68;1.65;;;25.50;38.40;;;;;;5072910;28;20028;-54
2023/04/25 11:47:36;;;;;;;5.15;1.45;;;24.90;37.30;;;;;;5069609;28;20866;-46
2023/04/25 11:50:04;;;;;;;7.00;1.83;;;25.10;36.70;;;;;;5054764;28;20106;-53
2023/04/25 11:52:37;;;;;;;6.30;1.73;;;24.60;39.10;;;;;;5072787;28;20184;-47
2023/04/25 11:55:06;;;;;;;6.65;1.65;;;22.60;38.80;;;;;;5072576;28;20744;-48
2023/04/25 11:57:32;;;;;;;5.03;1.50;;;21.00;42.00;;;;;;5072826;28;20025;-49
2023/04/25 12:00:23;;;;;;;7.07;2.00;;;19.70;42.40;;;;;;5072341;28;20566;-49
2023/04/25 12:02:53;;;;;;;6.72;1.58;;;19.40;45.30;;;;;;5072557;28;20037;-50
2023/04/25 12:05:20;;;;;;;5.78;1.35;;;20.30;45.90;;;;;;5072541;28;20121;-46
2023/04/25 12:07:46;;;;;;;5.80;1.65;;;21.40;44.80;;;;;;5072391;28;20478;-50
2023/04/25 12:10:14;;;;;;;8.07;2.13;;;22.80;42.60;;;;;;5071750;28;20135;-48
2023/04/25 12:12:44;;;;;;;3.78;1.30;;;23.30;42.40;;;;;;5072032;28;20048;-48
2023/04/25 12:15:14;;;;;;;4.72;1.48;;;25.10;44.30;;;;;;5072167;28;20029;-46
2023/04/25 12:17:40;;;;;;;4.70;1.23;;;25.30;38.00;;;;;;5064342;28;20021;-48
2023/04/25 12:20:08;;;;;;;4.53;1.50;;;25.20;36.80;;;;;;5072157;28;20372;-47
2023/04/25 12:22:34;;;;;;;6.90;1.70;;;24.30;39.70;;;;;;5072168;28;20025;-49
2023/04/25 12:25:00;;;;;;;6.88;2.00;;;24.10;37.90;;;;;;5054887;28;20061;-49
2023/04/25 12:27:26;;;;;;;9.85;2.00;;;22.40;37.70;;;;;;5072051;28;20020;-48
2023/04/25 12:29:54;;;;;;;8.65;1.80;;;20.80;42.60;;;;;;5072164;28;20032;-46
2023/04/25 12:32:20;;;;;;;7.05;1.70;;;19.90;45.20;;;;;;5071939;28;20024;-48
2023/04/25 12:34:46;;;;;;;8.32;2.05;;;19.00;45.80;;;;;;5072019;28;20025;-46
2023/04/25 12:37:11;;;;;;;6.15;2.05;;;18.60;46.70;;;;;;5071830;28;20017;-48
2023/04/25 12:39:37;;;;;;;7.40;2.03;;;18.10;48.60;;;;;;5071613;28;20028;-48
2023/04/25 12:42:03;;;;;;;4.78;1.63;;;17.90;48.60;;;;;;5071901;28;20032;-45
2023/04/25 12:44:29;;;;;;;7.10;1.95;;;18.10;48.30;;;;;;5071465;28;20047;-49